Time;durP1;ratioP1;P1;durP2;ratioP2;P2;SDS_P1;SDS_P2;PMS_P1;PMS_P2;Temp;Humidity;BMP_temperature;BMP_pressure;BME280_temperature;BME280_humidity;BME280_pressure;Samples;Min_cycle;Max_cycle;Signal;HPM_P1;HPM_P2
2021/04/11 00:01:37;;;;;;;5.57;2.43;;;13.60;38.10;;;;;;5018387;28;20033;-85
2021/04/11 00:04:03;;;;;;;8.40;3.10;;;13.60;38.10;;;;;;5025371;28;20026;-85
2021/04/11 00:06:29;;;;;;;6.47;3.60;;;13.60;38.00;;;;;;5033370;28;20128;-85
2021/04/11 00:08:55;;;;;;;5.17;3.17;;;13.70;38.00;;;;;;5032094;28;20033;-85
2021/04/11 00:11:21;;;;;;;4.53;3.20;;;13.70;38.20;;;;;;5033494;28;20083;-84
2021/04/11 00:13:53;;;;;;;6.70;3.27;;;13.60;38.10;;;;;;5017694;28;20033;-84
2021/04/11 00:16:19;;;;;;;6.80;3.40;;;13.70;38.20;;;;;;5028189;28;20106;-85
2021/04/11 00:18:45;;;;;;;5.47;3.30;;;13.70;38.10;;;;;;5026839;28;20116;-85
2021/04/11 00:21:11;;;;;;;5.67;3.13;;;13.70;38.30;;;;;;5033906;28;20537;-85
2021/04/11 00:23:37;;;;;;;11.87;3.17;;;13.70;38.20;;;;;;5031176;28;20029;-85
2021/04/11 00:26:04;;;;;;;5.97;3.77;;;13.60;38.30;;;;;;5031967;28;20116;-85
2021/04/11 00:28:30;;;;;;;8.33;3.23;;;13.70;38.50;;;;;;5030731;28;20033;-85
2021/04/11 00:30:56;;;;;;;5.20;3.03;;;13.60;38.40;;;;;;5022967;28;20029;-85
2021/04/11 00:33:26;;;;;;;6.43;3.27;;;13.60;38.50;;;;;;5032149;28;20029;-85
2021/04/11 00:36:16;;;;;;;10.77;3.90;;;13.60;38.50;;;;;;5030192;28;20049;-85
2021/04/11 00:38:42;;;;;;;8.87;3.00;;;13.60;38.60;;;;;;5030493;28;20037;-85
2021/04/11 00:41:33;;;;;;;8.03;3.43;;;13.60;38.60;;;;;;5029677;28;20029;-84
2021/04/11 00:44:01;;;;;;;4.53;3.27;;;13.70;38.60;;;;;;5028942;28;20036;-85
2021/04/11 00:46:46;;;;;;;7.67;3.30;;;13.80;38.60;;;;;;5032112;28;20034;-85
2021/04/11 00:49:21;;;;;;;7.33;3.07;;;13.80;38.60;;;;;;5047800;28;20112;-85
2021/04/11 00:51:46;;;;;;;7.27;3.47;;;13.70;38.50;;;;;;5025093;28;20029;-85
2021/04/11 00:54:13;;;;;;;6.63;2.97;;;13.70;38.60;;;;;;5030249;28;20075;-85
2021/04/11 00:56:39;;;;;;;6.67;3.37;;;13.70;38.70;;;;;;5029033;28;20481;-85
2021/04/11 00:59:07;;;;;;;5.53;3.27;;;13.70;38.80;;;;;;5024347;28;20026;-85
2021/04/11 01:01:35;;;;;;;5.70;2.83;;;13.60;38.90;;;;;;5030703;28;20029;-85
2021/04/11 01:04:01;;;;;;;9.57;3.70;;;13.70;38.80;;;;;;5027746;28;20025;-85
2021/04/11 01:06:33;;;;;;;7.27;3.00;;;13.70;38.60;;;;;;5031190;28;20697;-85
2021/04/11 01:09:01;;;;;;;5.53;3.70;;;13.70;38.50;;;;;;5030126;28;20113;-86
2021/04/11 01:11:32;;;;;;;8.30;4.37;;;13.70;38.50;;;;;;5031399;28;20039;-85
2021/04/11 01:14:01;;;;;;;4.73;2.90;;;13.70;38.50;;;;;;5031136;28;20029;-86
2021/04/11 01:16:28;;;;;;;5.60;3.00;;;13.70;38.50;;;;;;5021371;28;20034;-86
2021/04/11 01:18:54;;;;;;;6.33;3.50;;;13.70;38.50;;;;;;5031348;28;20025;-86
2021/04/11 01:21:47;;;;;;;9.10;3.73;;;13.80;38.50;;;;;;5024315;28;20036;-85
2021/04/11 01:24:44;;;;;;;5.65;3.40;;;13.80;38.60;;;;;;5025147;28;20030;-85
2021/04/11 01:27:16;;;;;;;7.90;3.47;;;13.70;38.80;;;;;;5022095;28;20029;-85
2021/04/11 01:29:43;;;;;;;6.03;4.05;;;13.70;38.80;;;;;;5017122;28;20025;-86
2021/04/11 01:32:10;;;;;;;6.47;3.20;;;13.70;38.80;;;;;;5027711;28;20085;-85
2021/04/11 01:34:38;;;;;;;7.03;3.60;;;13.70;38.90;;;;;;5028253;28;20053;-85
2021/04/11 01:37:06;;;;;;;6.47;3.00;;;13.70;39.00;;;;;;5026272;28;20089;-86
2021/04/11 01:39:36;;;;;;;6.27;3.20;;;13.70;39.10;;;;;;5031126;28;20127;-85
2021/04/11 01:42:04;;;;;;;12.20;3.30;;;13.70;39.10;;;;;;5029187;28;20026;-86
2021/04/11 01:44:33;;;;;;;6.03;3.10;;;13.70;39.10;;;;;;5022817;28;20038;-85
2021/04/11 01:46:59;;;;;;;6.47;2.83;;;13.70;39.20;;;;;;5025756;28;20025;-85
2021/04/11 01:49:26;;;;;;;5.80;3.03;;;13.60;39.30;;;;;;5022931;28;20025;-85
2021/04/11 01:52:09;;;;;;;5.20;3.13;;;13.60;39.40;;;;;;5031076;28;20033;-85
2021/04/11 01:54:35;;;;;;;7.20;2.70;;;13.70;39.50;;;;;;5030086;28;20033;-85
2021/04/11 01:57:27;;;;;;;7.60;3.00;;;13.70;39.40;;;;;;5018770;28;20045;-85
2021/04/11 02:00:22;;;;;;;5.53;3.20;;;13.70;39.30;;;;;;5023074;28;20040;-85
2021/04/11 02:02:56;;;;;;;10.67;3.50;;;13.70;39.40;;;;;;5027513;28;20474;-85
2021/04/11 02:05:22;;;;;;;7.20;3.03;;;13.70;39.40;;;;;;5026601;28;20026;-85
2021/04/11 02:07:52;;;;;;;5.20;2.90;;;13.70;39.40;;;;;;5019732;28;20074;-85
2021/04/11 02:10:21;;;;;;;8.20;2.80;;;13.70;40.00;;;;;;5026809;28;20057;-85
2021/04/11 02:12:47;;;;;;;4.90;2.80;;;13.80;39.50;;;;;;5045166;28;20508;-85
2021/04/11 02:15:21;;;;;;;6.07;2.67;;;13.80;39.50;;;;;;5032077;28;20049;-85
2021/04/11 02:17:48;;;;;;;5.27;2.63;;;13.90;39.50;;;;;;5034549;28;20088;-85
2021/04/11 02:20:15;;;;;;;9.33;3.57;;;13.90;39.40;;;;;;5029193;28;20060;-85
2021/04/11 02:22:42;;;;;;;8.17;3.13;;;13.90;39.40;;;;;;5019930;28;20033;-85
2021/04/11 02:25:15;;;;;;;6.60;3.00;;;13.90;39.50;;;;;;5026754;28;20084;-85
2021/04/11 02:27:41;;;;;;;6.93;2.37;;;13.90;39.50;;;;;;5026228;28;20026;-85
2021/04/11 02:30:10;;;;;;;4.80;2.47;;;13.90;39.60;;;;;;5024160;28;20021;-82
2021/04/11 02:32:36;;;;;;;6.30;2.90;;;14.00;39.50;;;;;;5010836;28;20542;-82
2021/04/11 02:35:05;;;;;;;3.87;2.50;;;14.00;39.50;;;;;;5026704;28;20124;-82
2021/04/11 02:37:33;;;;;;;5.13;2.50;;;14.00;39.60;;;;;;5024390;28;20045;-82
2021/04/11 02:40:00;;;;;;;3.93;2.30;;;14.00;39.70;;;;;;5029921;28;20491;-85
2021/04/11 02:42:31;;;;;;;7.30;2.43;;;14.00;39.70;;;;;;5027181;28;20152;-85
2021/04/11 02:45:22;;;;;;;5.00;2.10;;;14.00;39.70;;;;;;5029060;28;20025;-85
2021/04/11 02:47:47;;;;;;;5.10;2.90;;;14.00;39.60;;;;;;5030422;28;20044;-85
2021/04/11 02:50:14;;;;;;;6.33;2.70;;;13.90;39.80;;;;;;5024356;28;20018;-85
2021/04/11 02:52:54;;;;;;;5.03;2.17;;;13.80;39.70;;;;;;5033023;28;20049;-85
2021/04/11 02:55:20;;;;;;;4.40;2.20;;;13.90;40.00;;;;;;5034475;28;20097;-86
2021/04/11 02:57:46;;;;;;;4.13;2.90;;;13.80;39.80;;;;;;5030826;28;20088;-86
2021/04/11 03:00:17;;;;;;;4.20;2.37;;;13.80;40.00;;;;;;5033919;28;20061;-85
2021/04/11 03:02:45;;;;;;;3.07;2.20;;;13.70;40.00;;;;;;5032288;28;20507;-85
2021/04/11 03:05:12;;;;;;;5.90;2.77;;;13.70;40.20;;;;;;5031450;28;20026;-85
2021/04/11 03:08:03;;;;;;;4.20;2.53;;;13.70;40.10;;;;;;5032819;28;20381;-85
2021/04/11 03:10:54;;;;;;;5.60;2.40;;;13.70;40.10;;;;;;5027198;28;20520;-85
2021/04/11 03:13:31;;;;;;;3.53;2.03;;;13.70;40.10;;;;;;5003101;28;20080;-85
2021/04/11 03:15:57;;;;;;;7.20;2.40;;;13.70;40.10;;;;;;5031689;28;20018;-85
2021/04/11 03:18:25;;;;;;;3.40;2.30;;;13.60;40.10;;;;;;5032072;28;20025;-85
2021/04/11 03:20:51;;;;;;;3.03;2.10;;;13.60;40.30;;;;;;5032326;28;20069;-85
2021/04/11 03:23:19;;;;;;;4.47;2.27;;;13.60;40.40;;;;;;5033074;28;20500;-85
2021/04/11 03:25:45;;;;;;;3.47;2.23;;;13.70;40.40;;;;;;5029608;28;20111;-85
2021/04/11 03:28:30;;;;;;;4.00;2.10;;;13.70;40.30;;;;;;5026973;28;20049;-85
2021/04/11 03:31:06;;;;;;;3.93;2.10;;;13.70;40.40;;;;;;5017037;28;20017;-85
2021/04/11 03:33:37;;;;;;;4.17;2.50;;;13.70;40.30;;;;;;5032116;28;20033;-85
2021/04/11 03:36:06;;;;;;;7.53;3.03;;;13.70;40.30;;;;;;5031483;28;20041;-85
2021/04/11 03:38:33;;;;;;;7.33;2.17;;;13.70;40.40;;;;;;5029867;28;20033;-85
2021/04/11 03:41:00;;;;;;;4.60;3.23;;;13.60;40.40;;;;;;5033324;28;20021;-85
2021/04/11 03:43:38;;;;;;;6.87;2.40;;;13.60;40.40;;;;;;5032638;28;20039;-85
2021/04/11 03:46:30;;;;;;;6.30;4.23;;;13.70;40.40;;;;;;5032906;28;20064;-85
2021/04/11 03:49:18;;;;;;;5.30;2.10;;;13.70;40.50;;;;;;5032868;28;20041;-85
2021/04/11 03:51:54;;;;;;;5.27;2.63;;;13.70;40.40;;;;;;5032120;28;20611;-85
2021/04/11 03:54:28;;;;;;;4.67;2.37;;;13.70;40.40;;;;;;5031611;28;20037;-85
2021/04/11 03:57:10;;;;;;;4.10;2.30;;;13.60;40.50;;;;;;5025158;28;20099;-85
2021/04/11 03:59:51;;;;;;;3.90;2.33;;;13.50;40.60;;;;;;5025783;28;20026;-85
2021/04/11 04:02:20;;;;;;;5.07;2.57;;;13.50;40.80;;;;;;5031053;28;20287;-84
2021/04/11 04:04:46;;;;;;;6.77;2.57;;;13.40;40.80;;;;;;5035305;28;20478;-85
2021/04/11 04:07:21;;;;;;;4.63;2.20;;;13.40;41.00;;;;;;5034161;28;20029;-85
2021/04/11 04:10:00;;;;;;;6.50;2.53;;;13.40;41.10;;;;;;5027352;28;20031;-85
2021/04/11 04:12:49;;;;;;;6.70;2.77;;;13.40;41.10;;;;;;5026527;28;20022;-85
2021/04/11 04:15:30;;;;;;;3.60;2.30;;;13.40;41.00;;;;;;5024883;28;20032;-85
2021/04/11 04:18:16;;;;;;;3.43;2.30;;;13.30;41.20;;;;;;5040939;28;20099;-85
2021/04/11 04:20:49;;;;;;;4.63;2.70;;;13.30;41.40;;;;;;5032678;28;20036;-85
2021/04/11 04:23:43;;;;;;;3.50;2.20;;;13.20;41.50;;;;;;5027164;28;20433;-85
2021/04/11 04:26:15;;;;;;;5.67;2.67;;;13.20;41.60;;;;;;5038381;28;20044;-84
2021/04/11 04:28:57;;;;;;;3.03;2.40;;;13.10;41.60;;;;;;5032127;28;20026;-85
2021/04/11 04:31:22;;;;;;;7.03;3.47;;;13.10;41.80;;;;;;5026981;28;20100;-85
2021/04/11 04:34:16;;;;;;;6.20;2.60;;;13.20;41.70;;;;;;5020208;28;20300;-85
2021/04/11 04:37:00;;;;;;;5.37;2.50;;;13.20;41.70;;;;;;5030751;28;20464;-85
2021/04/11 04:39:45;;;;;;;7.37;3.00;;;13.20;41.60;;;;;;5026169;28;20056;-85
2021/04/11 04:42:35;;;;;;;5.63;2.40;;;13.20;41.60;;;;;;5021297;28;20030;-85
2021/04/11 04:45:17;;;;;;;5.70;2.60;;;13.20;41.70;;;;;;5036505;28;20064;-85
2021/04/11 04:47:43;;;;;;;7.13;2.88;;;13.20;41.60;;;;;;5022304;28;20032;-85
2021/04/11 04:50:15;;;;;;;5.40;2.63;;;13.20;41.60;;;;;;5028457;28;20063;-85
2021/04/11 04:52:46;;;;;;;2.53;2.33;;;13.20;41.70;;;;;;5030132;28;20037;-85
2021/04/11 04:55:24;;;;;;;4.97;2.27;;;13.20;41.80;;;;;;5019069;28;20687;-85
2021/04/11 04:58:01;;;;;;;6.30;2.57;;;13.20;41.80;;;;;;5031379;28;20413;-85
2021/04/11 05:00:34;;;;;;;5.73;2.40;;;13.10;41.90;;;;;;5029029;28;20045;-85
2021/04/11 05:03:12;;;;;;;3.17;2.30;;;13.10;42.10;;;;;;5028773;28;20034;-85
2021/04/11 05:06:07;;;;;;;5.00;2.60;;;13.00;42.30;;;;;;5022529;28;21292;-84
2021/04/11 05:08:57;;;;;;;3.97;2.37;;;13.00;42.30;;;;;;5003302;28;20501;-86
2021/04/11 05:11:36;;;;;;;7.47;2.57;;;13.00;42.30;;;;;;5028820;28;20064;-85
2021/04/11 05:14:18;;;;;;;4.87;2.40;;;13.10;42.30;;;;;;5029996;28;20029;-85
2021/04/11 05:17:01;;;;;;;5.23;2.73;;;13.10;42.30;;;;;;5029693;28;20056;-85
2021/04/11 05:19:43;;;;;;;6.23;2.90;;;13.00;42.30;;;;;;5021019;28;20037;-85
2021/04/11 05:22:26;;;;;;;7.03;2.65;;;13.10;42.80;;;;;;5027366;28;20079;-85
2021/04/11 05:25:10;;;;;;;4.13;2.50;;;13.10;42.30;;;;;;5020952;28;20436;-85
2021/04/11 05:28:16;;;;;;;4.27;2.57;;;13.10;42.40;;;;;;5026664;28;20033;-85
2021/04/11 05:30:51;;;;;;;3.03;2.40;;;13.10;42.50;;;;;;5027899;28;20116;-85
2021/04/11 05:33:20;;;;;;;5.60;2.50;;;13.10;42.50;;;;;;5023778;28;20069;-85
2021/04/11 05:35:49;;;;;;;3.70;2.60;;;13.10;42.50;;;;;;5026556;28;20129;-85
2021/04/11 05:38:31;;;;;;;4.43;2.10;;;13.10;42.50;;;;;;5023665;28;20437;-85
2021/04/11 05:41:07;;;;;;;4.70;2.28;;;13.20;42.60;;;;;;5029221;28;20025;-85
2021/04/11 05:43:58;;;;;;;3.37;2.40;;;13.10;42.60;;;;;;5030519;28;20524;-85
2021/04/11 05:46:41;;;;;;;4.13;2.70;;;13.10;42.60;;;;;;5018024;28;20064;-85
2021/04/11 05:49:16;;;;;;;2.83;2.33;;;13.10;42.70;;;;;;5046106;28;20037;-85
2021/04/11 05:51:53;;;;;;;3.87;2.53;;;13.00;42.90;;;;;;5035601;28;20543;-85
2021/04/11 05:54:21;;;;;;;3.67;2.50;;;13.00;43.00;;;;;;5026623;28;20469;-85
2021/04/11 05:56:50;;;;;;;4.67;2.47;;;13.00;42.90;;;;;;5027999;28;20026;-85
2021/04/11 05:59:22;;;;;;;3.27;2.40;;;13.10;42.90;;;;;;5033635;28;20511;-85
2021/04/11 06:01:52;;;;;;;4.13;2.43;;;13.10;42.80;;;;;;5027709;28;20064;-85
2021/04/11 06:04:20;;;;;;;3.57;2.70;;;13.20;42.90;;;;;;5035824;28;20079;-85
2021/04/11 06:06:58;;;;;;;3.47;2.53;;;13.40;42.70;;;;;;5031683;28;20058;-85
2021/04/11 06:09:47;;;;;;;3.03;2.27;;;13.40;42.60;;;;;;5034269;28;20018;-85
2021/04/11 06:12:29;;;;;;;6.80;2.47;;;13.40;42.70;;;;;;5031233;28;20036;-85
2021/04/11 06:15:08;;;;;;;3.33;2.40;;;13.40;42.80;;;;;;5044417;28;20033;-84
2021/04/11 06:17:35;;;;;;;3.47;2.40;;;13.40;42.80;;;;;;5028270;28;20034;-84
2021/04/11 06:20:05;;;;;;;4.20;2.37;;;13.50;42.70;;;;;;5026343;28;20084;-85
2021/04/11 06:22:43;;;;;;;4.87;2.43;;;13.60;42.70;;;;;;5025208;28;20501;-84
2021/04/11 06:25:27;;;;;;;5.70;2.63;;;13.50;42.70;;;;;;5039914;28;20030;-84
2021/04/11 06:28:24;;;;;;;5.00;2.23;;;13.60;42.80;;;;;;5029483;28;20079;-85
2021/04/11 06:31:08;;;;;;;5.30;2.50;;;13.60;42.60;;;;;;5030044;28;20109;-85
2021/04/11 06:33:42;;;;;;;3.27;2.20;;;13.70;42.70;;;;;;5025529;28;20033;-85
2021/04/11 06:36:17;;;;;;;3.83;2.50;;;13.70;42.50;;;;;;5030545;28;20046;-85
2021/04/11 06:38:50;;;;;;;3.33;2.13;;;13.70;42.40;;;;;;5031945;28;20044;-85
2021/04/11 06:41:50;;;;;;;3.67;2.40;;;13.60;42.60;;;;;;5025793;28;20065;-84
2021/04/11 06:44:25;;;;;;;4.97;2.37;;;13.50;42.70;;;;;;5040698;28;20033;-85
2021/04/11 06:47:18;;;;;;;5.27;2.50;;;13.50;42.70;;;;;;5028838;28;20052;-85
2021/04/11 06:50:00;;;;;;;4.87;2.20;;;13.50;42.80;;;;;;5035343;28;20042;-85
2021/04/11 06:52:44;;;;;;;4.17;2.17;;;13.50;42.90;;;;;;5019922;28;20389;-85
2021/04/11 06:55:18;;;;;;;4.07;2.10;;;13.50;42.90;;;;;;5033114;28;20036;-85
2021/04/11 06:58:00;;;;;;;3.30;2.60;;;13.70;42.90;;;;;;5030088;28;20029;-84
2021/04/11 07:00:36;;;;;;;3.20;2.38;;;13.70;42.70;;;;;;5024979;28;20108;-85
2021/04/11 07:03:20;;;;;;;4.13;2.00;;;13.70;42.70;;;;;;5033508;28;20385;-84
2021/04/11 07:06:23;;;;;;;5.90;2.00;;;13.80;42.80;;;;;;5026669;28;20025;-85
2021/04/11 07:09:14;;;;;;;3.30;2.15;;;13.80;42.50;;;;;;5028962;28;20034;-84
2021/04/11 07:11:42;;;;;;;3.47;2.47;;;13.80;42.60;;;;;;5021302;28;20021;-85
2021/04/11 07:14:29;;;;;;;3.67;2.20;;;13.70;42.80;;;;;;5030837;28;20053;-85
2021/04/11 07:16:58;;;;;;;3.00;1.80;;;13.70;42.70;;;;;;5035012;28;20052;-84
2021/04/11 07:19:40;;;;;;;3.07;1.80;;;13.80;42.80;;;;;;5031613;28;20381;-84
2021/04/11 07:22:43;;;;;;;2.73;1.83;;;13.90;42.70;;;;;;5031301;28;20049;-85
2021/04/11 07:25:20;;;;;;;5.90;2.30;;;14.00;42.60;;;;;;5030975;28;20029;-85
2021/04/11 07:28:08;;;;;;;4.90;2.53;;;14.10;42.40;;;;;;5030422;28;20319;-85
2021/04/11 07:30:46;;;;;;;4.07;1.90;;;14.00;42.40;;;;;;5027618;28;20500;-85
2021/04/11 07:33:29;;;;;;;4.60;2.07;;;14.00;42.50;;;;;;5028852;28;20033;-85
2021/04/11 07:36:22;;;;;;;2.43;2.17;;;14.00;42.60;;;;;;5033110;28;20045;-85
2021/04/11 07:39:12;;;;;;;4.00;2.03;;;14.10;42.70;;;;;;5020678;28;20672;-85
2021/04/11 07:41:52;;;;;;;6.47;3.10;;;14.10;42.50;;;;;;5033248;28;20033;-85
2021/04/11 07:44:39;;;;;;;4.07;2.00;;;14.10;42.70;;;;;;5033293;28;20021;-84
2021/04/11 07:47:17;;;;;;;4.23;2.30;;;14.20;42.50;;;;;;5029015;28;20044;-84
2021/04/11 07:50:15;;;;;;;5.27;1.70;;;14.30;42.50;;;;;;5019910;28;20066;-85
2021/04/11 07:53:07;;;;;;;2.73;1.60;;;14.30;42.70;;;;;;5047914;28;20026;-85
2021/04/11 07:55:39;;;;;;;7.60;1.77;;;14.20;42.50;;;;;;5021989;28;20033;-85
2021/04/11 07:58:13;;;;;;;3.33;1.67;;;14.30;42.50;;;;;;5030448;28;20099;-85
2021/04/11 08:00:54;;;;;;;3.13;2.03;;;14.30;42.50;;;;;;5018198;28;20021;-85
2021/04/11 08:03:33;;;;;;;3.10;2.03;;;14.30;42.90;;;;;;5031932;28;20033;-85
2021/04/11 08:06:44;;;;;;;3.87;2.17;;;14.40;42.40;;;;;;5032452;28;20021;-84
2021/04/11 08:09:16;;;;;;;2.73;2.10;;;14.50;42.40;;;;;;5015417;28;20076;-85
2021/04/11 08:12:05;;;;;;;4.78;1.40;;;14.80;42.20;;;;;;5019693;28;20072;-84
2021/04/11 08:14:52;;;;;;;1.80;1.30;;;15.10;41.80;;;;;;5033567;28;20033;-85
2021/04/11 08:18:01;;;;;;;2.80;1.83;;;15.50;41.50;;;;;;5023730;28;20029;-85
2021/04/11 08:20:46;;;;;;;2.97;0.97;;;15.70;41.00;;;;;;5028197;28;20049;-84
2021/04/11 08:23:41;;;;;;;1.73;1.20;;;15.90;40.50;;;;;;5032664;28;20051;-85
2021/04/11 08:26:32;;;;;;;3.43;1.03;;;15.90;40.20;;;;;;5029617;28;20025;-85
2021/04/11 08:29:04;;;;;;;3.90;1.73;;;16.00;40.20;;;;;;5019031;28;20073;-84
2021/04/11 08:31:54;;;;;;;1.80;1.00;;;16.20;39.70;;;;;;5026883;28;20036;-85
2021/04/11 08:34:38;;;;;;;2.80;1.33;;;16.40;39.70;;;;;;5030708;28;20279;-85
2021/04/11 08:37:28;;;;;;;3.07;1.13;;;16.60;39.60;;;;;;5030530;28;20069;-85
2021/04/11 08:40:06;;;;;;;1.58;0.90;;;16.90;39.50;;;;;;5026213;28;20021;-85
2021/04/11 08:42:39;;;;;;;2.45;1.27;;;17.20;39.30;;;;;;5004268;28;20050;-85
2021/04/11 08:45:20;;;;;;;1.67;0.57;;;17.40;38.80;;;;;;5021217;28;20037;-85
2021/04/11 08:48:23;;;;;;;0.88;0.40;;;17.50;38.20;;;;;;5027693;28;20029;-85
2021/04/11 08:50:57;;;;;;;2.90;0.80;;;17.40;37.80;;;;;;5031794;28;20025;-85
2021/04/11 08:53:35;;;;;;;1.35;0.60;;;17.30;37.80;;;;;;5030262;28;20026;-85
2021/04/11 08:56:10;;;;;;;1.08;0.80;;;17.30;37.90;;;;;;5032294;28;20096;-85
2021/04/11 08:58:42;;;;;;;1.40;0.60;;;17.50;37.70;;;;;;5024974;28;20079;-84
2021/04/11 09:01:18;;;;;;;0.40;0.40;;;17.70;37.00;;;;;;5031632;28;20029;-85
2021/04/11 09:04:07;;;;;;;1.27;0.50;;;17.90;36.50;;;;;;5023511;28;20288;-85
2021/04/11 09:06:54;;;;;;;0.82;0.40;;;18.10;35.90;;;;;;5028117;28;20029;-85
2021/04/11 09:09:56;;;;;;;0.50;0.30;;;18.30;35.50;;;;;;5018481;28;20490;-85
2021/04/11 09:12:28;;;;;;;1.23;0.20;;;18.40;35.10;;;;;;5028001;28;20056;-85
2021/04/11 09:15:10;;;;;;;0.65;0.40;;;18.60;35.00;;;;;;5028138;28;20045;-85
2021/04/11 09:17:58;;;;;;;2.70;0.50;;;18.70;34.40;;;;;;5027097;28;20038;-85
2021/04/11 09:20:53;;;;;;;0.93;0.38;;;18.90;34.60;;;;;;5034387;28;20110;-85
2021/04/11 09:23:59;;;;;;;0.95;0.13;;;19.10;34.00;;;;;;5034762;28;20084;-85
2021/04/11 09:26:40;;;;;;;2.22;0.80;;;19.30;33.50;;;;;;5033223;28;20041;-85
2021/04/11 09:29:46;;;;;;;0.98;0.40;;;19.30;33.20;;;;;;5034739;28;20044;-84
2021/04/11 09:32:26;;;;;;;0.55;0.30;;;19.10;32.40;;;;;;5036031;28;20025;-85
2021/04/11 09:35:29;;;;;;;2.33;0.30;;;19.00;32.50;;;;;;5034691;28;20400;-84
2021/04/11 09:38:29;;;;;;;0.30;0.20;;;18.90;32.50;;;;;;5029290;28;20524;-84
2021/04/11 09:41:27;;;;;;;0.63;0.40;;;19.00;32.40;;;;;;5028185;28;20055;-84
2021/04/11 09:43:56;;;;;;;0.50;0.38;;;19.10;32.30;;;;;;5029107;28;20029;-85
2021/04/11 09:46:52;;;;;;;1.52;0.35;;;19.20;32.40;;;;;;5034173;28;20029;-85
2021/04/11 09:49:20;;;;;;;0.38;0.30;;;19.40;32.20;;;;;;5033885;28;20025;-85
2021/04/11 09:52:35;;;;;;;0.28;0.22;;;19.30;32.20;;;;;;5028316;28;20022;-85
2021/04/11 09:55:11;;;;;;;0.30;0.22;;;19.30;32.00;;;;;;5017245;28;20057;-85
2021/04/11 09:58:04;;;;;;;0.40;0.30;;;19.40;32.10;;;;;;5031754;28;20497;-84
2021/04/11 10:00:53;;;;;;;2.05;0.40;;;19.50;31.80;;;;;;5019168;28;20117;-84
2021/04/11 10:03:46;;;;;;;0.17;0.10;;;19.40;31.90;;;;;;5031243;28;20025;-84
2021/04/11 10:06:16;;;;;;;2.15;0.47;;;19.50;32.00;;;;;;5034160;28;20037;-84
2021/04/11 10:09:06;;;;;;;0.90;0.28;;;19.40;31.90;;;;;;5035011;28;20084;-84
2021/04/11 10:11:38;;;;;;;1.05;0.10;;;19.30;31.80;;;;;;5026409;28;20120;-84
2021/04/11 10:14:20;;;;;;;0.40;0.20;;;19.20;31.80;;;;;;5035165;28;20021;-84
2021/04/11 10:17:33;;;;;;;0.15;0.10;;;19.00;31.60;;;;;;5024789;28;20474;-84
2021/04/11 10:20:22;;;;;;;0.13;0.10;;;19.00;31.70;;;;;;5030072;28;20026;-84
2021/04/11 10:23:42;;;;;;;0.40;0.20;;;18.90;31.70;;;;;;5030150;28;20473;-85
2021/04/11 10:26:22;;;;;;;1.50;0.20;;;18.80;31.50;;;;;;4993266;28;20081;-84
2021/04/11 10:28:58;;;;;;;0.75;0.10;;;18.60;31.60;;;;;;5029133;28;20079;-84
2021/04/11 10:31:48;;;;;;;0.73;0.10;;;18.60;31.70;;;;;;5025548;28;20482;-85
2021/04/11 10:34:17;;;;;;;0.32;0.20;;;18.60;31.80;;;;;;5023016;28;20130;-84
2021/04/11 10:37:01;;;;;;;0.28;0.20;;;18.60;31.80;;;;;;5048554;28;20042;-85
2021/04/11 10:39:45;;;;;;;1.75;0.30;;;18.60;31.70;;;;;;5031005;28;20104;-84
2021/04/11 10:42:24;;;;;;;0.47;0.30;;;18.60;32.00;;;;;;5031073;28;20037;-84
2021/04/11 10:44:53;;;;;;;0.30;0.20;;;18.60;32.10;;;;;;5030955;28;20022;-84
2021/04/11 10:47:45;;;;;;;0.28;0.15;;;18.60;32.20;;;;;;5028773;28;20030;-83
2021/04/11 10:50:37;;;;;;;0.30;0.10;;;18.60;32.30;;;;;;5037543;28;20466;-84
2021/04/11 10:53:29;;;;;;;1.30;0.10;;;18.60;32.40;;;;;;5025668;28;20033;-84
2021/04/11 10:56:03;;;;;;;0.32;0.17;;;18.60;32.40;;;;;;5032770;28;20417;-84
2021/04/11 10:59:09;;;;;;;0.32;0.25;;;18.60;32.60;;;;;;5025536;28;20458;-83
2021/04/11 11:01:54;;;;;;;1.30;0.45;;;18.60;32.50;;;;;;5025580;28;20034;-85
2021/04/11 11:04:22;;;;;;;0.88;0.22;;;18.60;32.30;;;;;;5047792;28;20045;-84
2021/04/11 11:07:17;;;;;;;0.40;0.20;;;18.70;32.30;;;;;;5033475;28;20029;-85
2021/04/11 11:10:18;;;;;;;1.20;0.30;;;18.70;31.90;;;;;;5036531;28;20026;-85
2021/04/11 11:13:09;;;;;;;0.70;0.20;;;18.70;31.90;;;;;;5011248;28;20033;-85
2021/04/11 11:15:53;;;;;;;0.20;0.20;;;18.80;31.90;;;;;;5015048;28;20018;-85
2021/04/11 11:18:41;;;;;;;0.45;0.20;;;18.90;31.50;;;;;;5016394;28;20060;-85
2021/04/11 11:21:45;;;;;;;0.35;0.20;;;19.00;31.20;;;;;;5032612;28;20045;-86
2021/04/11 11:24:32;;;;;;;0.85;0.35;;;19.10;31.20;;;;;;5026253;28;20104;-87
2021/04/11 11:27:36;;;;;;;1.40;0.17;;;19.20;31.40;;;;;;5032791;28;20032;-87
2021/04/11 11:30:11;;;;;;;;;;;19.30;31.30;;;;;;5030823;28;20033;-85
2021/04/11 11:33:01;;;;;;;0.10;0.10;;;19.40;31.40;;;;;;5037169;28;19980;-85
2021/04/11 11:35:28;;;;;;;0.20;0.10;;;19.50;31.20;;;;;;5032206;28;20046;-86
2021/04/11 11:38:31;;;;;;;0.60;0.20;;;19.60;31.20;;;;;;5033419;28;20026;-85
2021/04/11 11:41:26;;;;;;;0.10;0.10;;;19.50;30.70;;;;;;5023443;28;20681;-86
2021/04/11 11:44:23;;;;;;;0.43;0.20;;;19.60;30.80;;;;;;5017997;28;20022;-85
2021/04/11 11:47:13;;;;;;;0.10;0.10;;;19.70;30.80;;;;;;5027615;28;20519;-86
2021/04/11 11:49:46;;;;;;;0.25;0.10;;;19.70;30.70;;;;;;5031517;28;20057;-85
2021/04/11 11:52:22;;;;;;;0.47;0.30;;;19.70;30.60;;;;;;5033639;28;20028;-86
2021/04/11 11:54:57;;;;;;;3.70;0.30;;;19.80;30.60;;;;;;5033392;28;20029;-85
2021/04/11 11:57:36;;;;;;;0.93;0.20;;;19.90;30.50;;;;;;5030487;28;20477;-86
2021/04/11 12:00:20;;;;;;;0.82;0.17;;;19.90;30.40;;;;;;5024699;28;20367;-85
2021/04/11 12:03:05;;;;;;;0.40;0.20;;;19.90;30.20;;;;;;5029074;28;20024;-86
2021/04/11 12:05:48;;;;;;;2.25;0.20;;;19.90;30.20;;;;;;5031921;28;20026;-86
2021/04/11 12:08:53;;;;;;;0.25;0.20;;;19.90;30.20;;;;;;5032953;28;20037;-87
2021/04/11 12:11:55;;;;;;;0.40;0.20;;;20.00;30.00;;;;;;5029845;28;20049;-86
2021/04/11 12:14:40;;;;;;;0.32;0.20;;;20.10;30.10;;;;;;5033598;28;20474;-85
2021/04/11 12:17:32;;;;;;;2.13;0.20;;;20.20;30.20;;;;;;5032101;28;20543;-85
2021/04/11 12:20:23;;;;;;;0.65;0.10;;;20.10;30.00;;;;;;5032801;28;20022;-86
2021/04/11 12:23:02;;;;;;;0.68;0.20;;;20.10;30.20;;;;;;5017204;28;20535;-85
2021/04/11 12:25:30;;;;;;;0.25;0.10;;;20.10;30.10;;;;;;5020740;28;20743;-85
2021/04/11 12:27:57;;;;;;;0.32;0.20;;;20.10;30.00;;;;;;5029639;28;20022;-85
2021/04/11 12:30:25;;;;;;;0.25;0.20;;;20.00;30.10;;;;;;5032012;28;20025;-85
2021/04/11 12:33:07;;;;;;;0.20;0.20;;;20.00;30.10;;;;;;5023362;28;20029;-85
2021/04/11 12:35:40;;;;;;;2.75;0.25;;;20.00;30.00;;;;;;5029308;28;20124;-85
2021/04/11 12:38:45;;;;;;;1.02;0.22;;;20.00;30.00;;;;;;5031925;28;20661;-85
2021/04/11 12:41:21;;;;;;;0.10;0.10;;;20.00;30.10;;;;;;5024800;28;20832;-85
2021/04/11 12:43:57;;;;;;;0.43;0.20;;;19.90;30.00;;;;;;5032426;28;20033;-85
2021/04/11 12:46:43;;;;;;;2.13;0.20;;;19.80;29.90;;;;;;5033303;28;20107;-85
2021/04/11 12:49:36;;;;;;;0.65;0.30;;;19.80;29.90;;;;;;5031198;28;20030;-86
2021/04/11 12:52:02;;;;;;;;;;;19.90;30.00;;;;;;5023807;28;20029;-86
2021/04/11 12:54:34;;;;;;;3.83;0.28;;;19.90;30.00;;;;;;5031380;28;19909;-86
2021/04/11 12:57:32;;;;;;;0.32;0.30;;;19.90;29.80;;;;;;5037934;28;20025;-86
2021/04/11 13:00:10;;;;;;;0.50;0.20;;;20.00;30.00;;;;;;5032022;28;20044;-86
2021/04/11 13:02:48;;;;;;;0.68;0.20;;;20.00;29.90;;;;;;5048050;28;20030;-85
2021/04/11 13:05:23;;;;;;;0.60;0.25;;;20.00;30.00;;;;;;5047675;28;20021;-85
2021/04/11 13:07:57;;;;;;;1.83;0.10;;;20.00;30.00;;;;;;5019936;28;20026;-85
2021/04/11 13:10:43;;;;;;;0.20;0.20;;;20.00;29.90;;;;;;5027719;28;20037;-85
2021/04/11 13:13:23;;;;;;;0.28;0.20;;;19.90;29.90;;;;;;5028407;28;20551;-85
2021/04/11 13:16:11;;;;;;;3.20;0.22;;;19.90;30.00;;;;;;5029062;28;20075;-85
2021/04/11 13:19:12;;;;;;;0.20;0.20;;;19.80;30.00;;;;;;5024389;28;20056;-85
2021/04/11 13:21:57;;;;;;;0.65;0.30;;;19.80;30.00;;;;;;5041523;28;20038;-84
2021/04/11 13:24:32;;;;;;;1.48;0.30;;;19.80;30.00;;;;;;5036075;28;20500;-84
2021/04/11 13:27:10;;;;;;;0.47;0.28;;;19.80;30.20;;;;;;5015849;28;20385;-84
2021/04/11 13:30:12;;;;;;;0.22;0.20;;;19.80;30.10;;;;;;5032091;28;20025;-85
2021/04/11 13:32:48;;;;;;;0.10;0.10;;;19.70;30.10;;;;;;5021792;28;20087;-85
2021/04/11 13:35:38;;;;;;;1.30;0.30;;;19.70;30.20;;;;;;5033987;28;20108;-85
2021/04/11 13:38:15;;;;;;;1.63;0.20;;;19.70;30.30;;;;;;5032024;28;20482;-85
2021/04/11 13:40:41;;;;;;;0.10;0.10;;;19.70;30.20;;;;;;5023764;28;20040;-83
2021/04/11 13:43:24;;;;;;;3.30;0.20;;;19.70;30.10;;;;;;5031675;28;20030;-84
2021/04/11 13:46:00;;;;;;;0.25;0.20;;;19.70;30.00;;;;;;5028239;28;20053;-85
2021/04/11 13:48:41;;;;;;;1.27;0.10;;;19.70;30.20;;;;;;5028367;28;20022;-85
2021/04/11 13:51:13;;;;;;;0.13;0.13;;;19.80;30.40;;;;;;5020923;28;20717;-85
2021/04/11 13:54:06;;;;;;;0.40;0.20;;;19.80;30.20;;;;;;5024565;28;20569;-84